createdAt,value
2023-05-24T00:00:41.094Z,13.50
2023-05-24T00:03:10.348Z,18.52
2023-05-24T00:05:41.106Z,18.67
2023-05-24T00:08:08.740Z,14.13
2023-05-24T00:10:36.727Z,14.68
2023-05-24T00:13:04.580Z,18.85
2023-05-24T00:15:32.187Z,23.45
2023-05-24T00:18:00.343Z,20.15
2023-05-24T00:20:29.759Z,14.10
2023-05-24T00:22:57.398Z,26.13
2023-05-24T00:25:25.179Z,17.63
2023-05-24T00:27:52.774Z,17.55
2023-05-24T00:30:20.852Z,20.95
2023-05-24T00:32:48.523Z,17.50
2023-05-24T00:35:16.494Z,18.02
2023-05-24T00:37:54.707Z,30.08
2023-05-24T00:40:22.358Z,21.20
2023-05-24T00:42:50.241Z,17.45
2023-05-24T00:45:17.876Z,17.67
2023-05-24T00:47:45.667Z,23.73
2023-05-24T00:50:25.610Z,18.60
2023-05-24T00:52:54.680Z,28.73
2023-05-24T00:55:22.452Z,19.60
2023-05-24T00:57:50.099Z,17.65
2023-05-24T01:00:18.330Z,24.40
2023-05-24T01:02:48.309Z,35.30
2023-05-24T01:05:17.472Z,18.52
2023-05-24T01:07:52.501Z,19.83
2023-05-24T01:10:29.529Z,16.70
2023-05-24T01:13:00.909Z,22.15
2023-05-24T01:15:33.033Z,16.77
2023-05-24T01:18:05.979Z,17.17
2023-05-24T01:20:35.054Z,22.15
2023-05-24T01:23:08.979Z,22.83
2023-05-24T01:25:48.402Z,17.00
2023-05-24T01:28:19.365Z,15.48
2023-05-24T01:30:47.730Z,21.67
2023-05-24T01:38:46.192Z,23.33
2023-05-24T01:41:23.862Z,17.27
2023-05-24T01:43:58.760Z,25.60
2023-05-24T01:46:31.255Z,25.08
2023-05-24T01:49:05.121Z,19.23
2023-05-24T01:51:38.324Z,21.15
2023-05-24T01:54:07.184Z,24.08
2023-05-24T01:56:35.660Z,13.40
2023-05-24T01:59:05.174Z,27.33
2023-05-24T02:01:32.915Z,17.43
2023-05-24T02:04:00.569Z,22.75
2023-05-24T02:06:28.213Z,19.17
2023-05-24T02:08:55.997Z,28.00
2023-05-24T02:11:23.628Z,23.45
2023-05-24T02:13:51.229Z,15.80
2023-05-24T02:16:20.246Z,24.53
2023-05-24T02:18:47.957Z,23.60
2023-05-24T02:21:15.710Z,31.10
2023-05-24T02:23:43.654Z,22.90
2023-05-24T02:26:13.231Z,21.13
2023-05-24T02:28:41.398Z,28.77
2023-05-24T02:31:09.254Z,21.53
2023-05-24T02:33:38.546Z,23.55
2023-05-24T02:36:06.371Z,22.15
2023-05-24T02:38:34.108Z,22.30
2023-05-24T02:41:02.139Z,20.40
2023-05-24T02:43:29.777Z,25.20
2023-05-24T02:45:57.445Z,26.75
2023-05-24T02:48:25.101Z,20.92
2023-05-24T02:50:54.091Z,34.50
2023-05-24T02:53:21.746Z,39.85
2023-05-24T02:55:49.375Z,24.50
2023-05-24T02:58:17.720Z,29.33
2023-05-24T03:00:45.681Z,27.02
2023-05-24T03:03:13.665Z,33.40
2023-05-24T03:05:41.551Z,29.80
2023-05-24T03:08:10.765Z,29.67
2023-05-24T03:10:38.633Z,28.35
2023-05-24T03:13:06.307Z,24.27
2023-05-24T03:15:33.938Z,22.10
2023-05-24T03:18:01.642Z,23.85
2023-05-24T03:20:29.315Z,22.83
2023-05-24T03:22:57.054Z,30.30
2023-05-24T03:25:27.341Z,29.80
2023-05-24T03:27:55.033Z,23.55
2023-05-24T03:30:22.933Z,25.52
2023-05-24T03:32:50.570Z,24.92
2023-05-24T03:35:18.414Z,27.52
2023-05-24T03:37:46.406Z,25.15
2023-05-24T03:40:14.176Z,28.83
2023-05-24T03:42:43.281Z,12.55
2023-05-24T03:45:11.732Z,35.15
2023-05-24T03:47:39.561Z,22.80
2023-05-24T03:50:28.694Z,30.35
2023-05-24T03:52:56.350Z,21.60
2023-05-24T03:55:23.996Z,19.93
2023-05-24T03:57:53.099Z,27.75
2023-05-24T04:00:21.201Z,22.42
2023-05-24T04:02:49.046Z,25.95
2023-05-24T04:05:16.958Z,25.97
2023-05-24T04:07:46.329Z,19.80
2023-05-24T04:10:14.342Z,36.47
2023-05-24T04:12:42.194Z,22.15
2023-05-24T04:15:14.880Z,23.83
2023-05-24T04:17:43.691Z,34.05
2023-05-24T04:20:12.106Z,18.80
2023-05-24T04:22:39.882Z,30.85
2023-05-24T04:25:09.944Z,25.33
2023-05-24T04:27:37.928Z,34.17
2023-05-24T04:30:06.761Z,24.83
2023-05-24T04:32:36.904Z,37.65
2023-05-24T04:35:05.615Z,25.27
2023-05-24T04:37:34.402Z,27.67
2023-05-24T04:40:04.150Z,24.92
2023-05-24T04:42:32.567Z,22.25
2023-05-24T04:45:00.484Z,24.30
2023-05-24T04:47:28.182Z,29.43
2023-05-24T04:49:57.205Z,20.85
2023-05-24T04:52:25.009Z,27.90
2023-05-24T04:54:52.895Z,22.77
2023-05-24T04:57:20.672Z,24.00
2023-05-24T04:59:48.375Z,32.40
2023-05-24T05:02:16.185Z,27.30
2023-05-24T05:04:43.808Z,23.90
2023-05-24T05:07:12.826Z,24.88
2023-05-24T05:09:40.588Z,33.30
2023-05-24T05:12:08.630Z,48.35
2023-05-24T05:14:36.491Z,32.40
2023-05-24T05:17:04.142Z,17.10
2023-05-24T05:19:32.026Z,25.07
2023-05-24T05:21:59.665Z,27.77
2023-05-24T05:24:29.297Z,25.02
2023-05-24T05:26:56.880Z,26.02
2023-05-24T05:29:24.755Z,25.97
2023-05-24T05:31:52.472Z,18.48
2023-05-24T05:34:21.191Z,25.63
2023-05-24T05:36:48.898Z,31.17
2023-05-24T05:39:16.678Z,20.92
2023-05-24T05:41:46.543Z,33.65
2023-05-24T05:44:14.945Z,20.67
2023-05-24T05:46:46.366Z,19.98
2023-05-24T05:49:15.351Z,21.50
2023-05-24T05:51:43.127Z,27.83
2023-05-24T05:54:15.678Z,27.53
2023-05-24T05:56:47.913Z,27.67
2023-05-24T05:59:16.684Z,23.52
2023-05-24T06:01:45.701Z,32.30
2023-05-24T06:04:13.783Z,21.83
2023-05-24T06:06:41.551Z,17.17
2023-05-24T06:09:09.731Z,28.67
2023-05-24T06:11:37.356Z,24.80
2023-05-24T06:14:07.081Z,21.42
2023-05-24T06:16:34.840Z,21.88
2023-05-24T06:19:06.356Z,26.33
2023-05-24T06:21:37.704Z,22.23
2023-05-24T06:24:05.872Z,26.40
2023-05-24T06:26:33.506Z,18.67
2023-05-24T06:29:01.550Z,21.30
2023-05-24T06:31:30.599Z,29.88
2023-05-24T06:36:30.154Z,18.83
2023-05-24T06:38:57.794Z,20.88
2023-05-24T06:41:27.032Z,21.80
2023-05-24T06:43:54.745Z,27.20
2023-05-24T06:46:22.364Z,26.75
2023-05-24T06:48:51.478Z,27.97
2023-05-24T06:51:19.234Z,23.85
2023-05-24T06:53:57.277Z,25.65
2023-05-24T06:56:34.467Z,23.98
2023-05-24T06:59:02.118Z,27.13
2023-05-24T07:01:30.701Z,26.80
2023-05-24T07:03:59.761Z,19.52
2023-05-24T07:06:27.458Z,21.70
2023-05-24T07:08:55.059Z,16.03
2023-05-24T07:11:22.760Z,27.08
2023-05-24T07:13:50.461Z,19.00
2023-05-24T07:16:18.387Z,19.67
2023-05-24T07:18:46.165Z,22.17
2023-05-24T07:21:15.666Z,17.95
2023-05-24T07:23:43.364Z,22.85
2023-05-24T07:26:11.065Z,20.50
2023-05-24T07:28:40.486Z,21.00
2023-05-24T07:31:09.959Z,20.75
2023-05-24T07:33:38.158Z,28.00
2023-05-24T07:36:07.231Z,22.80
2023-05-24T07:38:37.146Z,24.73
2023-05-24T07:41:05.130Z,18.10
2023-05-24T07:43:32.880Z,19.55
2023-05-24T07:46:00.642Z,18.20
2023-05-24T07:48:28.380Z,20.50
2023-05-24T07:50:56.809Z,17.02
2023-05-24T07:53:24.569Z,20.15
2023-05-24T07:55:53.657Z,17.42
2023-05-24T07:58:21.373Z,13.90
2023-05-24T08:00:49.172Z,17.27
2023-05-24T08:03:17.512Z,15.03
2023-05-24T08:05:45.507Z,13.93
2023-05-24T08:08:13.978Z,21.03
2023-05-24T08:10:41.861Z,21.75
2023-05-24T08:13:11.552Z,16.50
2023-05-24T08:15:39.281Z,19.90
2023-05-24T08:18:06.985Z,19.55
2023-05-24T08:20:36.631Z,14.82
2023-05-24T08:23:04.416Z,17.25
2023-05-24T08:25:32.132Z,13.40
2023-05-24T08:27:59.965Z,19.15
2023-05-24T08:30:29.120Z,19.55
2023-05-24T08:32:58.182Z,16.52
2023-05-24T08:35:26.054Z,18.65
2023-05-24T08:37:53.753Z,20.90
2023-05-24T08:40:23.928Z,15.68
2023-05-24T08:42:53.005Z,16.63
2023-05-24T08:45:22.917Z,13.60
2023-05-24T08:47:53.338Z,19.42
2023-05-24T08:50:21.786Z,14.82
2023-05-24T08:52:50.332Z,15.25
2023-05-24T08:55:18.658Z,13.27
2023-05-24T08:57:47.042Z,15.43
2023-05-24T09:00:15.864Z,17.03
2023-05-24T09:02:44.853Z,15.75
2023-05-24T09:05:17.324Z,15.55
2023-05-24T09:07:46.529Z,14.77
2023-05-24T09:10:14.503Z,16.00
2023-05-24T09:12:46.935Z,11.60
2023-05-24T09:15:15.610Z,15.50
2023-05-24T09:17:45.270Z,13.27
2023-05-24T09:20:15.333Z,15.00
2023-05-24T09:22:44.227Z,18.30
2023-05-24T09:25:14.421Z,19.98
2023-05-24T09:27:42.381Z,18.15
2023-05-24T09:30:12.776Z,16.98
2023-05-24T09:32:41.188Z,17.63
2023-05-24T09:35:10.790Z,17.95
2023-05-24T09:37:40.455Z,19.83
2023-05-24T09:40:18.959Z,18.60
2023-05-24T09:42:47.765Z,16.27
2023-05-24T09:45:16.389Z,23.52
2023-05-24T09:47:45.502Z,14.40
2023-05-24T09:50:14.426Z,23.80
2023-05-24T09:52:44.059Z,15.27
2023-05-24T09:55:15.573Z,18.02
2023-05-24T09:57:45.026Z,18.70
2023-05-24T10:00:17.707Z,16.20
2023-05-24T10:02:53.325Z,16.73
2023-05-24T10:05:21.704Z,12.98
2023-05-24T10:07:51.047Z,23.02
2023-05-24T10:10:19.222Z,12.73
2023-05-24T10:12:48.001Z,15.68
2023-05-24T10:15:15.727Z,14.85
2023-05-24T10:17:43.532Z,16.30
2023-05-24T10:20:13.104Z,12.38
2023-05-24T10:22:46.299Z,15.50
2023-05-24T10:25:23.469Z,15.27
2023-05-24T10:27:54.214Z,18.48
2023-05-24T10:30:28.442Z,13.48
2023-05-24T10:32:57.177Z,15.88
2023-05-24T10:35:27.410Z,18.15
2023-05-24T10:37:55.703Z,13.90
2023-05-24T10:40:26.577Z,19.73
2023-05-24T10:42:55.134Z,17.40
2023-05-24T10:45:36.084Z,21.63
2023-05-24T10:48:11.302Z,15.38
2023-05-24T10:50:39.210Z,13.32
2023-05-24T10:53:14.133Z,18.98
2023-05-24T10:55:54.882Z,21.67
2023-05-24T10:58:28.298Z,16.08
2023-05-24T11:00:56.138Z,16.77
2023-05-24T11:03:25.386Z,15.10
2023-05-24T11:05:55.440Z,15.80
2023-05-24T11:08:27.701Z,13.95
2023-05-24T11:11:23.507Z,13.82
2023-05-24T11:13:57.115Z,14.98
2023-05-24T11:16:35.221Z,17.25
2023-05-24T11:19:13.209Z,11.55
2023-05-24T11:21:41.263Z,16.00
2023-05-24T11:24:09.526Z,17.52
2023-05-24T11:26:38.731Z,16.20
2023-05-24T11:29:07.603Z,13.15
2023-05-24T11:31:42.453Z,20.53
2023-05-24T11:34:11.859Z,18.30
2023-05-24T11:36:39.919Z,14.77
2023-05-24T11:39:09.778Z,14.48
2023-05-24T11:41:45.044Z,13.65
2023-05-24T11:44:13.545Z,15.55
2023-05-24T11:46:41.858Z,12.30
2023-05-24T11:49:13.708Z,12.10
2023-05-24T11:51:41.638Z,14.95
2023-05-24T11:54:09.536Z,13.97
2023-05-24T11:56:37.890Z,10.82
2023-05-24T11:59:16.395Z,18.25
2023-05-24T12:01:44.605Z,17.02
2023-05-24T12:04:13.650Z,15.75
2023-05-24T12:06:42.921Z,14.57
2023-05-24T12:09:13.263Z,21.25
2023-05-24T12:11:42.436Z,15.93
2023-05-24T12:16:57.742Z,20.98
2023-05-24T12:21:58.660Z,16.40
2023-05-24T12:24:27.404Z,16.95
2023-05-24T12:26:59.525Z,14.35
2023-05-24T12:29:27.359Z,17.67
2023-05-24T12:31:56.653Z,17.65
2023-05-24T12:34:25.514Z,15.63
2023-05-24T12:37:01.233Z,19.05
2023-05-24T12:39:31.944Z,20.20
2023-05-24T12:42:01.704Z,17.67
2023-05-24T12:44:31.367Z,21.08
2023-05-24T12:47:01.108Z,19.13
2023-05-24T12:49:28.878Z,20.27
2023-05-24T12:51:57.735Z,19.15
2023-05-24T12:54:27.370Z,17.77
2023-05-24T12:56:56.907Z,24.00
2023-05-24T12:59:27.354Z,14.83
2023-05-24T13:01:55.149Z,18.10
2023-05-24T13:04:26.383Z,19.95
2023-05-24T13:06:54.313Z,23.10
2023-05-24T13:09:23.514Z,18.98
2023-05-24T13:11:52.151Z,22.58
2023-05-24T13:14:20.453Z,18.20
2023-05-24T13:16:48.569Z,20.73
2023-05-24T13:19:16.577Z,16.10
2023-05-24T13:21:45.794Z,14.13
2023-05-24T13:24:14.835Z,15.77
2023-05-24T13:26:42.485Z,18.42
2023-05-24T13:31:41.861Z,15.25
2023-05-24T13:34:10.855Z,18.65
2023-05-24T13:36:38.965Z,14.75
2023-05-24T13:41:41.299Z,13.60
2023-05-24T13:44:11.016Z,13.55
2023-05-24T13:46:39.253Z,19.00
2023-05-24T13:49:07.634Z,11.10
2023-05-24T13:51:35.324Z,10.37
2023-05-24T13:54:03.103Z,11.45
2023-05-24T13:56:34.174Z,12.30
2023-05-24T13:59:02.671Z,12.90
2023-05-24T14:01:30.652Z,11.85
2023-05-24T14:03:58.447Z,17.30
2023-05-24T14:06:26.150Z,10.25
2023-05-24T14:08:54.077Z,13.13
2023-05-24T14:11:22.552Z,13.82
2023-05-24T14:16:22.573Z,7.90
2023-05-24T14:18:51.681Z,11.85
2023-05-24T14:21:19.746Z,13.83
2023-05-24T14:23:47.685Z,11.70
2023-05-24T14:26:15.573Z,16.27
2023-05-24T14:28:43.188Z,14.50
2023-05-24T14:31:12.225Z,11.55
2023-05-24T14:33:39.947Z,10.95
2023-05-24T14:36:08.271Z,14.65
2023-05-24T14:38:36.286Z,10.23
2023-05-24T14:41:03.986Z,13.57
2023-05-24T14:43:31.617Z,9.43
2023-05-24T14:45:59.317Z,13.60
2023-05-24T14:48:28.550Z,8.98
2023-05-24T14:50:56.175Z,9.50
2023-05-24T14:53:23.812Z,16.70
2023-05-24T14:55:53.806Z,16.95
2023-05-24T14:58:21.983Z,6.85
2023-05-24T15:00:50.212Z,9.70
2023-05-24T15:03:18.630Z,11.40
2023-05-24T15:05:49.029Z,14.43
2023-05-24T15:08:16.803Z,7.32
2023-05-24T15:10:45.294Z,9.07
2023-05-24T15:13:13.419Z,7.50
2023-05-24T15:15:42.024Z,12.02
2023-05-24T15:18:09.872Z,12.75
2023-05-24T15:20:37.707Z,8.48
2023-05-24T15:23:10.416Z,11.38
2023-05-24T15:25:38.121Z,11.82
2023-05-24T15:28:05.797Z,13.45
2023-05-24T15:30:33.381Z,13.18
2023-05-24T15:33:01.035Z,6.63
2023-05-24T15:35:28.703Z,9.30
2023-05-24T15:37:56.366Z,8.75
2023-05-24T15:40:25.735Z,9.02
2023-05-24T15:42:53.994Z,10.77
2023-05-24T15:45:22.005Z,12.63
2023-05-24T15:47:49.710Z,9.20
2023-05-24T15:50:19.139Z,14.45
2023-05-24T15:52:51.408Z,15.77
2023-05-24T15:55:19.351Z,8.52
2023-05-24T15:57:48.379Z,8.77
2023-05-24T16:00:16.892Z,8.75
2023-05-24T16:02:44.637Z,12.07
2023-05-24T16:05:12.364Z,10.05
2023-05-24T16:11:08.430Z,9.87
2023-05-24T16:13:37.660Z,8.15
2023-05-24T16:16:05.791Z,10.68
2023-05-24T16:18:35.341Z,10.68
2023-05-24T16:21:02.993Z,5.93
2023-05-24T16:23:30.842Z,7.78
2023-05-24T16:25:58.480Z,9.80
2023-05-24T16:28:26.712Z,8.33
2023-05-24T16:30:57.422Z,10.40
2023-05-24T16:33:25.962Z,13.00
2023-05-24T16:35:56.531Z,10.73
2023-05-24T16:38:25.028Z,14.63
2023-05-24T16:40:52.955Z,11.48
2023-05-24T16:43:21.476Z,11.32
2023-05-24T16:45:49.308Z,6.07
2023-05-24T16:48:21.351Z,9.43
2023-05-24T16:50:50.417Z,13.60
2023-05-24T16:53:22.966Z,10.18
2023-05-24T16:55:53.773Z,11.30
2023-05-24T16:58:21.873Z,8.85
2023-05-24T17:00:49.602Z,7.55
2023-05-24T17:03:22.218Z,12.88
2023-05-24T17:05:50.329Z,9.77
2023-05-24T17:08:18.895Z,6.07
2023-05-24T17:10:46.809Z,10.93
2023-05-24T17:13:14.541Z,10.57
2023-05-24T17:15:42.217Z,9.30
2023-05-24T17:18:10.102Z,13.80
2023-05-24T17:20:39.208Z,9.13
2023-05-24T17:23:07.043Z,8.52
2023-05-24T17:25:34.632Z,11.57
2023-05-24T17:28:02.409Z,12.38
2023-05-24T17:30:30.398Z,9.82
2023-05-24T17:32:58.307Z,9.50
2023-05-24T17:35:26.228Z,10.00
2023-05-24T17:37:55.421Z,6.85
2023-05-24T17:40:23.317Z,8.05
2023-05-24T17:42:51.179Z,7.83
2023-05-24T17:45:18.808Z,7.43
2023-05-24T17:47:46.555Z,9.18
2023-05-24T17:50:14.601Z,7.93
2023-05-24T17:52:42.264Z,7.70
2023-05-24T17:55:11.896Z,9.68
2023-05-24T17:57:39.496Z,10.85
2023-05-24T18:00:08.535Z,6.55
2023-05-24T18:02:36.344Z,12.00
2023-05-24T18:05:04.239Z,5.22
2023-05-24T18:07:31.969Z,10.00
2023-05-24T18:10:00.807Z,9.93
2023-05-24T18:12:30.572Z,10.25
2023-05-24T18:14:58.454Z,8.00
2023-05-24T18:17:48.116Z,10.98
2023-05-24T18:20:16.165Z,9.60
2023-05-24T18:22:44.237Z,8.82
2023-05-24T18:25:11.936Z,7.70
2023-05-24T18:27:41.127Z,6.85
2023-05-24T18:30:10.054Z,8.13
2023-05-24T18:32:42.064Z,11.77
2023-05-24T18:35:16.819Z,6.55
2023-05-24T18:37:44.910Z,5.33
2023-05-24T18:40:14.331Z,8.40
2023-05-24T18:42:46.242Z,7.23
2023-05-24T18:45:14.416Z,10.65
2023-05-24T18:47:42.068Z,14.80
2023-05-24T18:50:10.292Z,8.48
2023-05-24T18:52:38.128Z,8.88
2023-05-24T18:55:10.498Z,10.18
2023-05-24T18:57:45.624Z,12.82
2023-05-24T19:00:14.276Z,15.33
2023-05-24T19:02:42.098Z,15.98
2023-05-24T19:05:10.008Z,13.60
2023-05-24T19:07:37.925Z,12.10
2023-05-24T19:10:07.044Z,14.90
2023-05-24T19:12:34.858Z,10.53
2023-05-24T19:15:04.162Z,11.10
2023-05-24T19:17:31.843Z,14.73
2023-05-24T19:19:59.550Z,12.63
2023-05-24T19:22:27.670Z,8.20
2023-05-24T19:24:56.010Z,8.95
2023-05-24T19:27:24.512Z,9.20
2023-05-24T19:29:52.173Z,13.00
2023-05-24T19:32:21.424Z,11.73
2023-05-24T19:34:49.174Z,13.80
2023-05-24T19:37:16.802Z,7.43
2023-05-24T19:39:44.500Z,12.40
2023-05-24T19:42:12.694Z,8.77
2023-05-24T19:44:40.552Z,10.70
2023-05-24T19:47:08.514Z,6.50
2023-05-24T19:49:37.535Z,20.85
2023-05-24T19:52:05.150Z,9.07
2023-05-24T19:54:32.892Z,10.25
2023-05-24T19:57:01.719Z,10.95
2023-05-24T19:59:29.722Z,13.75
2023-05-24T20:01:57.587Z,8.33
2023-05-24T20:04:25.565Z,16.77
2023-05-24T20:06:54.578Z,11.98
2023-05-24T20:09:22.469Z,16.83
2023-05-24T20:11:50.091Z,13.07
2023-05-24T20:14:18.077Z,10.52
2023-05-24T20:16:45.731Z,12.00
2023-05-24T20:19:13.500Z,15.65
2023-05-24T20:21:41.192Z,12.18
2023-05-24T20:24:10.341Z,11.90
2023-05-24T20:26:38.003Z,10.33
2023-05-24T20:29:05.666Z,12.75
2023-05-24T20:31:33.325Z,14.18
2023-05-24T20:34:01.185Z,14.80
2023-05-24T20:36:28.801Z,12.50
2023-05-24T20:38:56.454Z,13.02
2023-05-24T20:41:26.278Z,10.23
2023-05-24T20:43:53.917Z,8.18
2023-05-24T20:46:22.776Z,8.95
2023-05-24T20:51:36.732Z,10.93
2023-05-24T20:54:05.216Z,10.68
2023-05-24T20:56:34.241Z,10.02
2023-05-24T20:59:02.271Z,11.20
2023-05-24T21:01:29.965Z,9.32
2023-05-24T21:03:57.647Z,16.65
2023-05-24T21:06:26.389Z,13.40
2023-05-24T21:08:58.904Z,16.02
2023-05-24T21:11:26.745Z,15.68
2023-05-24T21:13:56.707Z,10.38
2023-05-24T21:16:24.731Z,16.33
2023-05-24T21:18:52.459Z,15.00
2023-05-24T21:21:20.519Z,12.90
2023-05-24T21:23:48.266Z,14.40
2023-05-24T21:26:15.905Z,13.50
2023-05-24T21:28:44.788Z,9.38
2023-05-24T21:31:13.855Z,12.32
2023-05-24T21:33:42.774Z,12.60
2023-05-24T21:36:10.631Z,12.45
2023-05-24T21:38:38.341Z,7.90
2023-05-24T21:41:06.490Z,9.15
2023-05-24T21:43:34.113Z,9.35
2023-05-24T21:46:01.756Z,9.50
2023-05-24T21:48:30.791Z,9.68
2023-05-24T21:50:58.434Z,13.45
2023-05-24T21:53:26.207Z,7.75
2023-05-24T21:55:53.889Z,7.25
2023-05-24T21:58:21.485Z,9.38
2023-05-24T22:00:49.150Z,13.77
2023-05-24T22:03:16.952Z,11.43
2023-05-24T22:05:46.579Z,11.20
2023-05-24T22:08:14.383Z,10.95
2023-05-24T22:10:42.024Z,7.95
2023-05-24T22:13:09.645Z,11.57
2023-05-24T22:15:37.325Z,7.83
2023-05-24T22:18:05.023Z,9.35
2023-05-24T22:20:33.076Z,9.20
2023-05-24T22:23:02.169Z,7.75
2023-05-24T22:25:29.798Z,9.50
2023-05-24T22:27:57.438Z,10.05
2023-05-24T22:30:26.145Z,8.65
2023-05-24T22:32:53.883Z,7.03
2023-05-24T22:35:21.543Z,14.63
2023-05-24T22:37:49.227Z,10.53
2023-05-24T22:40:18.528Z,8.63
2023-05-24T22:42:46.226Z,8.32
2023-05-24T22:45:14.012Z,10.13
2023-05-24T22:47:41.724Z,10.77
2023-05-24T22:50:10.227Z,12.10
2023-05-24T22:52:42.397Z,5.28
2023-05-24T22:55:10.728Z,12.13
2023-05-24T22:57:39.874Z,8.48
2023-05-24T23:00:09.895Z,12.07
2023-05-24T23:02:37.873Z,5.65
2023-05-24T23:05:06.615Z,11.73
2023-05-24T23:07:34.341Z,9.88
2023-05-24T23:10:03.413Z,11.00
2023-05-24T23:12:31.038Z,14.93
2023-05-24T23:15:00.251Z,11.05
2023-05-24T23:17:27.957Z,11.40
2023-05-24T23:19:55.687Z,5.60
2023-05-24T23:22:26.410Z,10.45
2023-05-24T23:24:54.127Z,12.77
2023-05-24T23:27:22.450Z,12.20
2023-05-24T23:29:50.115Z,12.93
2023-05-24T23:32:19.407Z,13.55
2023-05-24T23:34:47.079Z,15.80
2023-05-24T23:37:14.740Z,10.27
2023-05-24T23:39:42.370Z,16.70
2023-05-24T23:42:10.045Z,11.73
2023-05-24T23:44:37.647Z,15.02
2023-05-24T23:47:06.064Z,8.93
2023-05-24T23:49:35.378Z,7.90
2023-05-24T23:52:03.029Z,8.10
2023-05-24T23:54:31.727Z,9.88
2023-05-24T23:56:59.339Z,10.43
2023-05-24T23:59:26.998Z,9.77
